Time;durP1;ratioP1;P1;durP2;ratioP2;P2;SDS_P1;SDS_P2;PMS_P1;PMS_P2;Temp;Humidity;BMP_temperature;BMP_pressure;BME280_temperature;BME280_humidity;BME280_pressure;Samples;Min_cycle;Max_cycle;Signal;HPM_P1;HPM_P2
2021/03/08 00:02:07;;;;;;;0.00;0.00;;;3.10;99.90;;;;;;5068605;28;20071;-83
2021/03/08 00:04:33;;;;;;;0.00;0.00;;;3.20;99.90;;;;;;5068700;28;20078;-81
2021/03/08 00:06:59;;;;;;;0.00;0.00;;;3.20;99.90;;;;;;5066284;28;20052;-84
2021/03/08 00:09:24;;;;;;;0.08;0.08;;;3.10;99.90;;;;;;5085227;28;20043;-83
2021/03/08 00:11:50;;;;;;;0.00;0.00;;;3.10;99.90;;;;;;5085002;28;20044;-83
2021/03/08 00:14:16;;;;;;;0.00;0.00;;;3.10;99.90;;;;;;5086637;28;20056;-83
2021/03/08 00:16:41;;;;;;;0.00;0.00;;;3.00;99.90;;;;;;5068212;28;20094;-83
2021/03/08 00:19:07;;;;;;;0.00;0.00;;;3.10;99.90;;;;;;5051888;28;20043;-82
2021/03/08 00:21:33;;;;;;;0.00;0.00;;;3.10;99.90;;;;;;5068208;28;20075;-82
2021/03/08 00:23:59;;;;;;;0.00;0.00;;;3.10;99.90;;;;;;5068552;28;20032;-83
2021/03/08 00:26:24;;;;;;;0.00;0.00;;;3.10;99.90;;;;;;5084746;28;20072;-83
2021/03/08 00:28:50;;;;;;;0.15;0.15;;;3.10;99.90;;;;;;5068437;28;20063;-82
2021/03/08 00:31:16;;;;;;;0.00;0.00;;;3.00;99.90;;;;;;5068131;28;20104;-83
2021/03/08 00:33:41;;;;;;;0.00;0.00;;;3.10;99.90;;;;;;5068485;28;20032;-83
2021/03/08 00:36:07;;;;;;;0.00;0.00;;;3.10;99.90;;;;;;5067987;28;20044;-83
2021/03/08 00:38:32;;;;;;;0.00;0.00;;;3.10;99.90;;;;;;5067984;28;20119;-82
2021/03/08 00:40:58;;;;;;;0.00;0.00;;;3.10;99.90;;;;;;5067935;28;20478;-81
2021/03/08 00:43:24;;;;;;;0.08;0.08;;;3.10;99.90;;;;;;5067233;28;20044;-82
2021/03/08 00:45:49;;;;;;;1.13;1.13;;;3.00;99.90;;;;;;5068190;28;20028;-82
2021/03/08 00:48:15;;;;;;;0.00;0.00;;;3.10;99.90;;;;;;5069485;28;20138;-84
2021/03/08 00:50:44;;;;;;;0.30;0.30;;;3.10;99.90;;;;;;5068911;28;20037;-83
2021/03/08 00:53:17;;;;;;;0.00;0.00;;;3.10;99.90;;;;;;5067717;28;20063;-83
2021/03/08 00:55:45;;;;;;;0.00;0.00;;;3.10;99.90;;;;;;5048081;28;20029;-84
2021/03/08 00:58:11;;;;;;;0.00;0.00;;;3.10;99.90;;;;;;5049162;28;20041;-83
2021/03/08 01:00:37;;;;;;;0.00;0.00;;;3.10;99.90;;;;;;5047835;28;20053;-83
2021/03/08 01:03:06;;;;;;;0.00;0.00;;;3.10;99.90;;;;;;5049027;28;20046;-83
2021/03/08 01:05:53;;;;;;;0.00;0.00;;;3.10;99.90;;;;;;5068076;28;20040;-84
2021/03/08 01:08:37;;;;;;;0.10;0.10;;;3.10;99.90;;;;;;4987560;28;20114;-83
2021/03/08 01:11:04;;;;;;;0.00;0.00;;;3.10;99.90;;;;;;4987466;28;20053;-83
2021/03/08 01:13:37;;;;;;;0.00;0.00;;;3.10;99.90;;;;;;4988948;28;20049;-83
2021/03/08 01:16:02;;;;;;;0.65;0.65;;;3.10;99.90;;;;;;4984224;28;20042;-83
2021/03/08 01:18:28;;;;;;;0.00;0.00;;;3.10;99.90;;;;;;4968237;28;20066;-83
2021/03/08 01:20:54;;;;;;;0.00;0.00;;;3.10;99.90;;;;;;4967985;28;20514;-83
2021/03/08 01:23:19;;;;;;;0.00;0.00;;;3.00;99.90;;;;;;4968362;28;20042;-83
2021/03/08 01:25:45;;;;;;;0.00;0.00;;;3.00;99.90;;;;;;4968320;28;20069;-83
2021/03/08 01:28:11;;;;;;;4.30;1.25;;;3.00;99.90;;;;;;4967876;28;20510;-83
2021/03/08 01:30:40;;;;;;;0.00;0.00;;;2.90;99.90;;;;;;4967964;28;20059;-83
2021/03/08 01:33:06;;;;;;;0.00;0.00;;;2.90;99.90;;;;;;4968161;28;20106;-83
2021/03/08 01:35:33;;;;;;;0.47;0.47;;;2.90;99.90;;;;;;4968085;28;20034;-83
2021/03/08 01:37:59;;;;;;;1.55;1.45;;;2.90;99.90;;;;;;4984350;28;20121;-83
2021/03/08 01:40:27;;;;;;;0.00;0.00;;;2.80;99.90;;;;;;4983811;28;20038;-83
2021/03/08 01:42:52;;;;;;;0.43;0.43;;;2.90;99.90;;;;;;4948904;29;20051;-83
2021/03/08 01:45:20;;;;;;;0.00;0.00;;;2.80;99.90;;;;;;5013736;28;20088;-84
2021/03/08 01:47:47;;;;;;;0.00;0.00;;;2.80;99.90;;;;;;5047216;28;20041;-83
2021/03/08 01:50:30;;;;;;;0.00;0.00;;;2.80;99.90;;;;;;5055136;28;20036;-83
2021/03/08 01:52:57;;;;;;;0.00;0.00;;;2.80;99.90;;;;;;5085300;28;20111;-84
2021/03/08 01:55:23;;;;;;;0.00;0.00;;;2.80;99.90;;;;;;5069177;28;20045;-83
2021/03/08 01:57:49;;;;;;;0.00;0.00;;;2.80;99.90;;;;;;5070659;28;20056;-83
2021/03/08 02:00:16;;;;;;;0.00;0.00;;;2.80;99.90;;;;;;5070894;28;20040;-84
2021/03/08 02:02:43;;;;;;;0.63;0.63;;;2.70;99.90;;;;;;5070798;28;20056;-83
2021/03/08 02:05:12;;;;;;;0.70;0.70;;;2.80;99.90;;;;;;5070801;28;20063;-84
2021/03/08 02:07:38;;;;;;;0.00;0.00;;;2.70;99.90;;;;;;5070569;28;20059;-83
2021/03/08 02:10:07;;;;;;;0.00;0.00;;;2.80;99.90;;;;;;5054023;28;20041;-84
2021/03/08 02:12:47;;;;;;;0.00;0.00;;;2.70;99.90;;;;;;5070957;28;20033;-83
2021/03/08 02:15:40;;;;;;;0.03;0.03;;;2.70;99.90;;;;;;5052372;28;20044;-83
2021/03/08 02:18:13;;;;;;;0.10;0.00;;;2.70;99.90;;;;;;5070785;28;20040;-83
2021/03/08 02:21:03;;;;;;;0.00;0.00;;;2.80;99.90;;;;;;5054047;28;20051;-83
2021/03/08 02:23:57;;;;;;;0.00;0.00;;;2.70;99.90;;;;;;5104303;28;20032;-83
2021/03/08 02:26:40;;;;;;;0.00;0.00;;;2.80;99.90;;;;;;5071277;28;20055;-83
2021/03/08 02:29:43;;;;;;;0.00;0.00;;;2.80;99.90;;;;;;5053621;28;20362;-83
2021/03/08 02:32:10;;;;;;;0.00;0.00;;;2.80;99.90;;;;;;5053720;28;20040;-83
2021/03/08 02:34:49;;;;;;;0.00;0.00;;;2.80;99.90;;;;;;5053974;28;20127;-83
2021/03/08 02:37:19;;;;;;;0.00;0.00;;;2.80;99.90;;;;;;5053385;28;20064;-83
2021/03/08 02:39:48;;;;;;;0.00;0.00;;;2.90;99.90;;;;;;5053726;28;20131;-83
2021/03/08 02:42:21;;;;;;;0.00;0.00;;;3.00;99.90;;;;;;5053433;28;20048;-83
2021/03/08 02:44:49;;;;;;;1.20;1.20;;;3.00;99.90;;;;;;5070194;28;20074;-83
2021/03/08 02:47:17;;;;;;;0.00;0.00;;;3.00;99.90;;;;;;5053495;28;20046;-83
2021/03/08 02:49:46;;;;;;;0.00;0.00;;;3.00;99.90;;;;;;5049740;28;20029;-83
2021/03/08 02:52:16;;;;;;;0.00;0.00;;;3.00;99.90;;;;;;5049974;28;20091;-83
2021/03/08 02:54:48;;;;;;;1.75;0.98;;;3.00;99.90;;;;;;5050413;28;20052;-83
2021/03/08 02:57:19;;;;;;;0.00;0.00;;;3.00;99.90;;;;;;5050030;28;20108;-83
2021/03/08 02:59:47;;;;;;;0.10;0.10;;;3.10;99.90;;;;;;5049872;28;20068;-84
2021/03/08 03:02:13;;;;;;;0.98;0.70;;;3.10;99.90;;;;;;5066374;28;20059;-83
2021/03/08 03:04:41;;;;;;;0.00;0.00;;;3.10;99.90;;;;;;5067709;28;20037;-83
2021/03/08 03:07:09;;;;;;;0.00;0.00;;;3.10;99.90;;;;;;5049629;28;20045;-83
2021/03/08 03:09:36;;;;;;;0.00;0.00;;;3.10;99.90;;;;;;5066316;28;20044;-83
2021/03/08 03:12:02;;;;;;;11.10;1.15;;;3.10;99.90;;;;;;5083047;28;20052;-83
2021/03/08 03:14:29;;;;;;;0.00;0.00;;;3.20;99.90;;;;;;5066206;28;20041;-83
2021/03/08 03:17:03;;;;;;;0.00;0.00;;;3.20;99.90;;;;;;5061589;28;20095;-83
2021/03/08 03:19:31;;;;;;;0.00;0.00;;;3.20;99.90;;;;;;5049715;28;20041;-83
2021/03/08 03:22:00;;;;;;;0.00;0.00;;;3.20;99.90;;;;;;5066249;28;20056;-83
2021/03/08 03:24:28;;;;;;;0.00;0.00;;;3.10;99.90;;;;;;5049649;28;20056;-83
2021/03/08 03:26:55;;;;;;;0.63;0.63;;;3.10;99.90;;;;;;5049576;28;20045;-83
2021/03/08 03:29:21;;;;;;;0.00;0.00;;;3.10;99.90;;;;;;5049374;28;20043;-83
2021/03/08 03:31:48;;;;;;;0.00;0.00;;;3.10;99.90;;;;;;5065986;28;20068;-83
2021/03/08 03:34:17;;;;;;;0.00;0.00;;;3.10;99.90;;;;;;5049315;28;20029;-84
2021/03/08 03:36:46;;;;;;;0.00;0.00;;;3.00;99.90;;;;;;5049359;28;20037;-83
2021/03/08 03:39:12;;;;;;;0.00;0.00;;;3.10;99.90;;;;;;5049162;28;20037;-83
2021/03/08 03:41:39;;;;;;;0.63;0.20;;;3.10;99.90;;;;;;5049214;28;20106;-83
2021/03/08 03:44:07;;;;;;;5.32;4.85;;;3.10;99.90;;;;;;5049230;28;20098;-83
2021/03/08 03:46:37;;;;;;;0.00;0.00;;;3.10;99.90;;;;;;5049107;28;20045;-83
2021/03/08 03:49:03;;;;;;;0.00;0.00;;;3.00;99.90;;;;;;5048989;28;20041;-83
2021/03/08 03:51:28;;;;;;;0.00;0.00;;;3.10;99.90;;;;;;5067023;28;20050;-83
2021/03/08 03:53:54;;;;;;;0.00;0.00;;;3.10;99.90;;;;;;5069059;28;20082;-83
2021/03/08 03:56:23;;;;;;;0.47;0.47;;;3.10;99.90;;;;;;5069067;28;20103;-83
2021/03/08 03:58:57;;;;;;;9.03;1.50;;;3.10;99.90;;;;;;5068922;28;20033;-83
2021/03/08 04:01:35;;;;;;;0.57;0.57;;;3.00;99.90;;;;;;5068545;28;20056;-83
2021/03/08 04:04:07;;;;;;;0.05;0.05;;;3.10;99.90;;;;;;5086438;28;20037;-84
2021/03/08 04:06:37;;;;;;;1.70;1.65;;;3.00;99.90;;;;;;5086476;28;20044;-83
2021/03/08 04:09:05;;;;;;;1.17;1.17;;;3.00;99.90;;;;;;5048292;28;20117;-83
2021/03/08 04:11:32;;;;;;;0.00;0.00;;;3.00;99.90;;;;;;5048831;28;20037;-83
2021/03/08 04:14:01;;;;;;;0.00;0.00;;;3.10;99.90;;;;;;5044529;28;20041;-83
2021/03/08 04:16:30;;;;;;;0.10;0.10;;;3.00;99.90;;;;;;5040642;28;20055;-83
2021/03/08 04:18:57;;;;;;;0.00;0.00;;;3.00;99.90;;;;;;5047921;28;20041;-83
2021/03/08 04:21:24;;;;;;;2.08;1.00;;;3.00;99.90;;;;;;5048085;28;20053;-83
2021/03/08 04:23:50;;;;;;;0.00;0.00;;;3.00;99.90;;;;;;5048254;28;20523;-83
2021/03/08 04:26:18;;;;;;;0.00;0.00;;;3.00;99.90;;;;;;5048233;28;20045;-83
2021/03/08 04:28:45;;;;;;;0.00;0.00;;;3.00;99.90;;;;;;5048088;28;20044;-83
2021/03/08 04:31:12;;;;;;;0.00;0.00;;;3.00;99.90;;;;;;5047832;28;20052;-83
2021/03/08 04:33:38;;;;;;;0.00;0.00;;;3.00;99.90;;;;;;5047921;28;20401;-83
2021/03/08 04:36:05;;;;;;;0.10;0.10;;;3.00;99.90;;;;;;5047700;28;20033;-83
2021/03/08 04:38:31;;;;;;;0.00;0.00;;;3.00;99.90;;;;;;5047813;28;20041;-84
2021/03/08 04:40:57;;;;;;;1.00;0.98;;;3.00;99.90;;;;;;5047885;28;20070;-83
2021/03/08 04:43:23;;;;;;;0.43;0.43;;;3.00;99.90;;;;;;5048030;28;20160;-83
2021/03/08 04:45:53;;;;;;;4.47;0.75;;;3.00;99.90;;;;;;5047992;28;20116;-83
2021/03/08 04:48:19;;;;;;;0.43;0.30;;;3.00;99.90;;;;;;5047831;28;20052;-84
2021/03/08 04:50:48;;;;;;;0.00;0.00;;;3.00;99.90;;;;;;5047523;28;20421;-83
2021/03/08 04:53:14;;;;;;;0.00;0.00;;;3.00;99.90;;;;;;5048066;28;20037;-83
2021/03/08 04:55:41;;;;;;;1.27;1.27;;;3.00;99.90;;;;;;5047915;28;20033;-83
2021/03/08 04:58:06;;;;;;;0.73;0.73;;;3.00;99.90;;;;;;5047839;28;20037;-83
2021/03/08 05:00:32;;;;;;;0.00;0.00;;;3.00;99.90;;;;;;5047649;28;20047;-83
2021/03/08 05:02:59;;;;;;;0.00;0.00;;;3.00;99.90;;;;;;5047643;28;20444;-83
2021/03/08 05:05:45;;;;;;;0.00;0.00;;;3.00;99.90;;;;;;5047629;28;20032;-83
2021/03/08 05:08:14;;;;;;;0.60;0.60;;;3.00;99.90;;;;;;4968171;28;20138;-83
2021/03/08 05:10:39;;;;;;;0.00;0.00;;;2.90;99.90;;;;;;4968243;28;20093;-83
2021/03/08 05:13:10;;;;;;;0.00;0.00;;;3.00;99.90;;;;;;4984508;28;20038;-82
2021/03/08 05:15:37;;;;;;;0.00;0.00;;;3.00;99.90;;;;;;4984419;28;20094;-83
2021/03/08 05:18:04;;;;;;;0.00;0.00;;;3.00;99.90;;;;;;4958986;28;20059;-83
2021/03/08 05:20:32;;;;;;;0.30;0.30;;;3.00;99.90;;;;;;4983884;28;20046;-83
2021/03/08 05:23:01;;;;;;;0.00;0.00;;;3.00;99.90;;;;;;4949143;29;20527;-83
2021/03/08 05:25:27;;;;;;;0.00;0.00;;;3.00;99.90;;;;;;4953415;28;20090;-83
2021/03/08 05:27:53;;;;;;;1.00;0.93;;;3.00;99.90;;;;;;4984379;28;20083;-83
2021/03/08 05:30:22;;;;;;;0.55;0.55;;;3.00;99.90;;;;;;4986021;28;20039;-83
2021/03/08 05:32:54;;;;;;;0.00;0.00;;;3.00;99.90;;;;;;4988024;28;20042;-83
2021/03/08 05:35:22;;;;;;;0.00;0.00;;;3.00;99.90;;;;;;4971742;28;20089;-83
2021/03/08 05:37:48;;;;;;;0.77;0.77;;;3.00;99.90;;;;;;4955671;28;20047;-83
2021/03/08 05:40:22;;;;;;;2.05;1.55;;;3.00;99.90;;;;;;4971773;28;20054;-83
2021/03/08 05:42:54;;;;;;;0.10;0.00;;;3.00;99.90;;;;;;4987951;28;20422;-84
2021/03/08 05:45:26;;;;;;;0.00;0.00;;;3.00;99.90;;;;;;5030968;28;20037;-83
2021/03/08 05:48:22;;;;;;;0.00;0.00;;;3.00;99.90;;;;;;5050835;28;20036;-84
2021/03/08 05:51:09;;;;;;;3.30;1.08;;;3.00;99.90;;;;;;5034440;28;20036;-84
2021/03/08 05:54:06;;;;;;;0.00;0.00;;;3.00;99.90;;;;;;5034835;28;20065;-84
2021/03/08 05:56:54;;;;;;;0.00;0.00;;;3.00;99.90;;;;;;5034385;28;20065;-84
2021/03/08 05:59:37;;;;;;;0.00;0.00;;;3.00;99.90;;;;;;5032300;28;20040;-85
2021/03/08 06:02:43;;;;;;;0.00;0.00;;;3.10;99.90;;;;;;5050599;28;20053;-85
2021/03/08 06:05:21;;;;;;;0.00;0.00;;;3.10;99.90;;;;;;5050145;28;20048;-85
2021/03/08 06:08:23;;;;;;;2.20;1.75;;;3.10;99.90;;;;;;5040538;28;20059;-84
2021/03/08 06:11:10;;;;;;;0.00;0.00;;;3.10;99.90;;;;;;5034321;28;20068;-84
2021/03/08 06:13:47;;;;;;;0.00;0.00;;;3.10;99.90;;;;;;5034013;28;20044;-84
2021/03/08 06:16:20;;;;;;;1.45;1.35;;;3.10;99.90;;;;;;5030526;28;20065;-83
2021/03/08 06:18:47;;;;;;;0.00;0.00;;;3.10;99.90;;;;;;5014400;28;20037;-84
2021/03/08 06:21:16;;;;;;;0.00;0.00;;;3.10;99.90;;;;;;5014140;28;20053;-84
2021/03/08 06:23:45;;;;;;;0.00;0.00;;;3.10;99.90;;;;;;5014462;28;20048;-85
2021/03/08 06:26:14;;;;;;;0.00;0.00;;;3.20;99.90;;;;;;5014144;28;20046;-86
2021/03/08 06:28:41;;;;;;;0.00;0.00;;;3.20;99.90;;;;;;5030322;28;20034;-85
2021/03/08 06:31:07;;;;;;;0.00;0.00;;;3.20;99.90;;;;;;5013973;28;20045;-85
2021/03/08 06:33:35;;;;;;;0.00;0.00;;;3.20;99.90;;;;;;5030508;28;20041;-85
2021/03/08 06:36:02;;;;;;;0.00;0.00;;;3.20;99.90;;;;;;5013832;28;20490;-85
2021/03/08 06:38:28;;;;;;;0.00;0.00;;;3.30;99.90;;;;;;5030521;28;20041;-85
2021/03/08 06:40:55;;;;;;;0.00;0.00;;;3.30;99.90;;;;;;5013661;28;20053;-84
2021/03/08 06:43:21;;;;;;;1.20;0.77;;;3.30;99.90;;;;;;5013039;28;20096;-86
2021/03/08 06:45:47;;;;;;;0.00;0.00;;;3.30;99.90;;;;;;5013768;28;20045;-84
2021/03/08 06:48:13;;;;;;;0.00;0.00;;;3.40;99.90;;;;;;5013449;28;20143;-84
2021/03/08 06:50:39;;;;;;;0.00;0.00;;;3.40;99.90;;;;;;5031590;28;20041;-85
2021/03/08 06:53:04;;;;;;;0.00;0.00;;;3.40;99.90;;;;;;5048993;28;20041;-86
2021/03/08 06:55:30;;;;;;;0.00;0.00;;;3.40;99.90;;;;;;5048963;28;20037;-85
2021/03/08 06:58:15;;;;;;;0.88;0.88;;;3.50;99.90;;;;;;5032333;28;20060;-85
2021/03/08 07:00:42;;;;;;;0.00;0.00;;;3.50;99.90;;;;;;5066997;28;20036;-85
2021/03/08 07:03:32;;;;;;;0.00;0.00;;;3.50;99.90;;;;;;5049398;28;20059;-85
2021/03/08 07:09:25;;;;;;;0.00;0.00;;;3.60;99.90;;;;;;5026284;28;20056;-86
2021/03/08 07:12:10;;;;;;;0.00;0.00;;;3.60;99.90;;;;;;5023150;28;20038;-85
2021/03/08 07:14:41;;;;;;;0.00;0.00;;;3.60;99.90;;;;;;5026914;28;20065;-86
2021/03/08 07:17:25;;;;;;;;;;;3.70;99.90;;;;;;5025063;28;20042;-86
2021/03/08 07:19:55;;;;;;;4.03;1.88;;;3.70;99.90;;;;;;5046000;28;19909;-85
2021/03/08 07:22:52;;;;;;;1.55;1.45;;;3.70;99.90;;;;;;5046114;28;20049;-85
2021/03/08 07:25:30;;;;;;;0.00;0.00;;;3.70;99.90;;;;;;5046169;28;20272;-86
2021/03/08 07:28:03;;;;;;;0.00;0.00;;;3.70;99.90;;;;;;5029688;28;20068;-85
2021/03/08 07:30:30;;;;;;;0.00;0.00;;;3.80;99.90;;;;;;5046117;28;20041;-86
2021/03/08 07:32:58;;;;;;;0.00;0.00;;;3.80;99.90;;;;;;5045990;28;20097;-85
2021/03/08 07:35:39;;;;;;;0.00;0.00;;;3.80;99.90;;;;;;5045735;28;20390;-85
2021/03/08 07:38:06;;;;;;;0.00;0.00;;;3.80;99.90;;;;;;5029113;28;20072;-85
2021/03/08 07:40:34;;;;;;;2.42;1.45;;;3.90;99.90;;;;;;5045426;28;20038;-85
2021/03/08 07:43:00;;;;;;;0.00;0.00;;;3.90;99.90;;;;;;5028974;28;20037;-84
2021/03/08 07:45:58;;;;;;;0.00;0.00;;;3.90;99.90;;;;;;5045638;28;20067;-85
2021/03/08 07:48:24;;;;;;;0.00;0.00;;;4.00;99.90;;;;;;5002319;28;20052;-85
2021/03/08 07:50:51;;;;;;;0.00;0.00;;;4.00;99.90;;;;;;5032724;28;20034;-85
2021/03/08 07:53:30;;;;;;;0.00;0.00;;;4.00;99.90;;;;;;5024844;28;20125;-85
2021/03/08 07:56:01;;;;;;;1.95;1.30;;;4.00;99.90;;;;;;5025579;28;20129;-86
2021/03/08 07:58:29;;;;;;;0.35;0.35;;;4.00;99.90;;;;;;5008950;28;20045;-85
2021/03/08 08:00:55;;;;;;;0.00;0.00;;;4.00;99.90;;;;;;5009193;28;20141;-84
2021/03/08 08:03:22;;;;;;;0.00;0.00;;;4.10;99.90;;;;;;5008771;28;20049;-86
2021/03/08 08:06:09;;;;;;;0.00;0.00;;;4.10;99.90;;;;;;5008790;28;20209;-85
2021/03/08 08:08:37;;;;;;;0.00;0.00;;;4.10;99.90;;;;;;4946173;29;20099;-86
2021/03/08 08:11:05;;;;;;;0.00;0.00;;;4.10;99.90;;;;;;4946322;29;20043;-86
2021/03/08 08:13:43;;;;;;;0.00;0.00;;;4.10;99.90;;;;;;4946461;29;20044;-85
2021/03/08 08:16:10;;;;;;;0.00;0.00;;;4.20;99.90;;;;;;4946361;29;20040;-86
2021/03/08 08:18:41;;;;;;;0.00;0.00;;;4.20;99.90;;;;;;4946324;29;20136;-85
2021/03/08 08:21:15;;;;;;;0.00;0.00;;;4.30;99.90;;;;;;4946214;29;20056;-85
2021/03/08 08:23:44;;;;;;;0.00;0.00;;;4.20;99.90;;;;;;4946281;29;20151;-85
2021/03/08 08:26:17;;;;;;;0.10;0.10;;;4.10;99.90;;;;;;4927757;28;20056;-85
2021/03/08 08:28:45;;;;;;;1.15;0.75;;;4.20;99.90;;;;;;4948312;29;20039;-85
2021/03/08 08:31:11;;;;;;;0.13;0.13;;;4.20;99.90;;;;;;4945068;29;20058;-85
2021/03/08 08:33:37;;;;;;;0.00;0.00;;;4.30;99.90;;;;;;4941212;29;20054;-85
2021/03/08 08:36:25;;;;;;;0.00;0.00;;;4.30;99.90;;;;;;4944954;29;20048;-85
2021/03/08 08:38:54;;;;;;;0.00;0.00;;;4.40;99.90;;;;;;4944282;29;20035;-85
2021/03/08 08:41:29;;;;;;;0.08;0.05;;;4.50;99.90;;;;;;4942836;29;20123;-85
2021/03/08 08:44:09;;;;;;;0.00;0.00;;;4.40;99.90;;;;;;4934624;29;20043;-86
2021/03/08 08:46:40;;;;;;;0.00;0.00;;;4.50;99.90;;;;;;5005578;28;20039;-85
2021/03/08 08:49:10;;;;;;;;;;;4.60;99.90;;;;;;5027562;28;20034;-85
2021/03/08 08:51:58;;;;;;;0.00;0.00;;;4.60;99.90;;;;;;5021546;28;19908;-82
2021/03/08 08:54:27;;;;;;;0.00;0.00;;;4.70;99.90;;;;;;5027911;28;20046;-86
2021/03/08 08:56:59;;;;;;;0.00;0.00;;;4.70;99.90;;;;;;5006814;28;20030;-86
2021/03/08 08:59:26;;;;;;;0.30;0.30;;;4.80;99.90;;;;;;5006899;28;20040;-86
2021/03/08 09:02:24;;;;;;;0.00;0.00;;;4.90;99.90;;;;;;5007689;28;20050;-87
2021/03/08 09:04:50;;;;;;;0.00;0.00;;;4.90;99.90;;;;;;5007389;28;20160;-85
2021/03/08 09:07:21;;;;;;;0.77;0.77;;;5.00;99.90;;;;;;5007114;28;20081;-85
2021/03/08 09:09:46;;;;;;;;;;;5.10;99.90;;;;;;5008253;28;20048;-86
2021/03/08 09:12:38;;;;;;;6.57;2.97;;;5.10;99.90;;;;;;5008076;28;19910;-85
2021/03/08 09:15:22;;;;;;;3.50;2.47;;;5.00;99.90;;;;;;5007341;28;20066;-86
2021/03/08 09:17:56;;;;;;;0.15;0.15;;;5.00;99.90;;;;;;5008065;28;20505;-86
2021/03/08 09:20:29;;;;;;;0.10;0.10;;;5.10;99.90;;;;;;5007984;28;20045;-85
2021/03/08 09:23:03;;;;;;;0.00;0.00;;;5.20;99.90;;;;;;5007795;28;20072;-86
2021/03/08 09:25:31;;;;;;;2.05;1.52;;;5.30;99.90;;;;;;5007906;28;20073;-87
2021/03/08 09:28:05;;;;;;;0.00;0.00;;;5.30;99.90;;;;;;5008024;28;20048;-85
2021/03/08 09:30:41;;;;;;;0.30;0.22;;;5.20;99.90;;;;;;5024047;28;20046;-85
2021/03/08 09:33:15;;;;;;;0.00;0.00;;;5.10;99.90;;;;;;5024228;28;20038;-87
2021/03/08 09:35:42;;;;;;;2.13;0.85;;;5.20;99.90;;;;;;5007664;28;20064;-86
2021/03/08 09:38:11;;;;;;;1.15;0.98;;;5.20;99.90;;;;;;5007899;28;20049;-85
2021/03/08 09:40:43;;;;;;;0.00;0.00;;;5.20;99.90;;;;;;5007752;28;20035;-87
2021/03/08 09:43:22;;;;;;;8.55;3.60;;;5.30;99.90;;;;;;5007541;28;20197;-86
2021/03/08 09:46:12;;;;;;;0.60;0.55;;;5.50;99.90;;;;;;5007963;28;20105;-86
2021/03/08 09:48:41;;;;;;;0.95;0.95;;;5.50;99.90;;;;;;5000162;28;20056;-86
2021/03/08 09:51:15;;;;;;;18.10;3.40;;;5.60;99.90;;;;;;5004180;28;20097;-86
2021/03/08 09:53:49;;;;;;;2.40;0.45;;;5.60;99.90;;;;;;5004331;28;20038;-85
2021/03/08 09:56:20;;;;;;;0.00;0.00;;;5.70;99.90;;;;;;5004423;28;20048;-86
2021/03/08 09:58:46;;;;;;;0.00;0.00;;;5.80;99.90;;;;;;5004303;28;20038;-86
2021/03/08 10:01:17;;;;;;;0.00;0.00;;;5.90;99.90;;;;;;4988131;28;20474;-87
2021/03/08 10:03:43;;;;;;;0.00;0.00;;;6.00;99.90;;;;;;5004334;28;20110;-86
2021/03/08 10:06:24;;;;;;;1.38;1.27;;;6.00;99.90;;;;;;5004107;28;20038;-86
2021/03/08 10:08:50;;;;;;;1.25;1.17;;;6.20;99.90;;;;;;5003655;28;20050;-85
2021/03/08 10:11:24;;;;;;;0.63;0.63;;;6.10;99.90;;;;;;5004039;28;20042;-86
2021/03/08 10:13:50;;;;;;;0.28;0.25;;;6.00;99.90;;;;;;5004066;28;20046;-86
2021/03/08 10:16:27;;;;;;;0.30;0.30;;;6.30;99.90;;;;;;5006905;28;20049;-87
2021/03/08 10:18:55;;;;;;;2.42;0.85;;;6.30;99.90;;;;;;5010547;28;20045;-87
2021/03/08 10:21:22;;;;;;;0.00;0.00;;;6.40;99.90;;;;;;5010633;28;20117;-86
2021/03/08 10:23:48;;;;;;;0.00;0.00;;;6.50;99.90;;;;;;5010514;28;20098;-86
2021/03/08 10:26:15;;;;;;;0.43;0.43;;;6.70;99.90;;;;;;5010820;28;20068;-87
2021/03/08 10:28:52;;;;;;;0.00;0.00;;;6.80;99.90;;;;;;5010422;28;20042;-85
2021/03/08 10:31:23;;;;;;;0.00;0.00;;;6.90;99.90;;;;;;5010489;28;20037;-86
2021/03/08 10:33:56;;;;;;;0.00;0.00;;;7.10;99.90;;;;;;5026775;28;20107;-87
2021/03/08 10:36:25;;;;;;;0.00;0.00;;;6.90;99.90;;;;;;5010453;28;20105;-86
2021/03/08 10:39:02;;;;;;;0.00;0.00;;;6.90;99.90;;;;;;5010332;28;20034;-87
2021/03/08 10:41:30;;;;;;;0.17;0.17;;;7.00;99.90;;;;;;5026989;28;20056;-85
2021/03/08 10:43:59;;;;;;;0.00;0.00;;;7.30;99.90;;;;;;5010255;28;20038;-86
2021/03/08 10:46:37;;;;;;;0.00;0.00;;;7.30;99.90;;;;;;5026396;28;20046;-85
2021/03/08 10:49:09;;;;;;;2.20;0.00;;;7.50;99.90;;;;;;5009974;28;20034;-86
2021/03/08 10:51:39;;;;;;;0.35;0.35;;;7.50;99.90;;;;;;4994032;28;20037;-87
2021/03/08 10:54:07;;;;;;;0.00;0.00;;;7.60;99.90;;;;;;5009908;28;20057;-86
2021/03/08 10:56:35;;;;;;;11.75;3.65;;;7.80;99.90;;;;;;5010134;28;20042;-87
2021/03/08 10:59:01;;;;;;;0.00;0.00;;;7.60;99.90;;;;;;5009683;28;20041;-86
2021/03/08 11:01:29;;;;;;;0.15;0.08;;;7.40;99.90;;;;;;5009823;28;20082;-87
2021/03/08 11:03:55;;;;;;;0.00;0.00;;;7.50;99.90;;;;;;5023694;28;20462;-87
2021/03/08 11:06:22;;;;;;;0.10;0.00;;;7.30;99.90;;;;;;5042088;28;20061;-85
2021/03/08 11:09:03;;;;;;;0.00;0.00;;;7.20;99.90;;;;;;5046657;28;20042;-86
2021/03/08 11:11:34;;;;;;;0.00;0.00;;;7.60;99.90;;;;;;5029594;28;20052;-86
2021/03/08 11:14:05;;;;;;;0.00;0.00;;;7.50;99.90;;;;;;5029507;28;20064;-85
2021/03/08 11:16:33;;;;;;;0.00;0.00;;;7.80;99.90;;;;;;5016617;28;20088;-87
2021/03/08 11:19:19;;;;;;;0.00;0.00;;;7.90;99.90;;;;;;5025491;28;20057;-86
2021/03/08 11:21:45;;;;;;;0.00;0.00;;;8.00;99.90;;;;;;5009708;28;20153;-86
2021/03/08 11:24:22;;;;;;;0.25;0.25;;;8.10;99.90;;;;;;5007723;28;20035;-85
2021/03/08 11:27:13;;;;;;;0.00;0.00;;;8.10;99.90;;;;;;5025359;28;20072;-86
2021/03/08 11:29:40;;;;;;;0.00;0.00;;;8.10;99.90;;;;;;5009338;28;20073;-87
2021/03/08 11:32:09;;;;;;;0.00;0.00;;;7.90;99.90;;;;;;5006982;28;20042;-87
2021/03/08 11:34:42;;;;;;;0.15;0.15;;;7.50;99.90;;;;;;5025657;28;20045;-87
2021/03/08 11:37:14;;;;;;;0.00;0.00;;;7.80;99.90;;;;;;5025636;28;20241;-85
2021/03/08 11:39:45;;;;;;;0.00;0.00;;;7.60;99.90;;;;;;5009340;28;20041;-86
2021/03/08 11:42:12;;;;;;;1.02;1.02;;;7.60;99.90;;;;;;5009151;28;20050;-88
2021/03/08 11:44:38;;;;;;;0.00;0.00;;;7.70;99.90;;;;;;5025492;28;20049;-87
2021/03/08 11:47:05;;;;;;;2.47;2.38;;;7.80;99.90;;;;;;5025642;28;20041;-87
2021/03/08 11:49:31;;;;;;;0.20;0.20;;;7.70;99.90;;;;;;5023402;28;20061;-86
2021/03/08 11:51:56;;;;;;;0.15;0.15;;;7.70;99.90;;;;;;5005512;28;20069;-87
2021/03/08 11:54:22;;;;;;;0.00;0.00;;;7.80;99.90;;;;;;5024759;28;20065;-87
2021/03/08 11:56:48;;;;;;;0.00;0.00;;;7.50;99.90;;;;;;5025680;28;20038;-87
2021/03/08 11:59:14;;;;;;;0.08;0.08;;;7.60;99.90;;;;;;5009085;28;20040;-87
2021/03/08 12:01:39;;;;;;;0.32;0.32;;;7.60;99.90;;;;;;5008731;28;20057;-87
2021/03/08 12:04:05;;;;;;;0.00;0.00;;;7.50;99.90;;;;;;5009000;28;20034;-87
2021/03/08 12:06:31;;;;;;;0.10;0.00;;;7.60;99.90;;;;;;5008615;28;20042;-88
2021/03/08 12:08:56;;;;;;;0.40;0.40;;;7.60;99.90;;;;;;5008562;28;20037;-87
2021/03/08 12:11:22;;;;;;;0.00;0.00;;;7.70;99.90;;;;;;5008589;28;20463;-87
2021/03/08 12:13:48;;;;;;;0.00;0.00;;;7.80;99.90;;;;;;5008525;28;20046;-88
2021/03/08 12:16:13;;;;;;;0.10;0.10;;;7.80;99.90;;;;;;5012175;28;20388;-87
2021/03/08 12:18:39;;;;;;;0.00;0.00;;;7.80;99.90;;;;;;5008676;28;20045;-87
2021/03/08 12:21:05;;;;;;;0.00;0.00;;;7.70;99.90;;;;;;5008541;28;20081;-86
2021/03/08 12:23:31;;;;;;;0.10;0.10;;;7.70;99.90;;;;;;5008575;28;20037;-87
2021/03/08 12:25:56;;;;;;;1.35;1.25;;;7.70;99.90;;;;;;5008435;28;20045;-86
2021/03/08 12:28:22;;;;;;;1.00;1.00;;;7.70;99.90;;;;;;5008378;28;20068;-87
2021/03/08 12:30:48;;;;;;;0.00;0.00;;;7.60;99.90;;;;;;5008453;28;20068;-86
2021/03/08 12:33:13;;;;;;;0.00;0.00;;;7.70;99.90;;;;;;5008328;28;20070;-86
2021/03/08 12:35:39;;;;;;;0.00;0.00;;;7.70;99.90;;;;;;5008148;28;20044;-87
2021/03/08 12:38:04;;;;;;;3.70;1.52;;;7.70;99.90;;;;;;5008053;28;20034;-87
2021/03/08 12:40:30;;;;;;;0.00;0.00;;;7.70;99.90;;;;;;5008442;28;20045;-88
2021/03/08 12:42:56;;;;;;;0.10;0.10;;;7.80;99.90;;;;;;5024625;28;20054;-87
2021/03/08 12:45:22;;;;;;;0.00;0.00;;;8.00;99.90;;;;;;5008345;28;20041;-87
2021/03/08 12:47:47;;;;;;;0.00;0.00;;;7.90;99.90;;;;;;5008146;28;20406;-88
2021/03/08 12:50:13;;;;;;;0.00;0.00;;;7.80;99.90;;;;;;5008076;28;20038;-88
2021/03/08 12:52:39;;;;;;;0.00;0.00;;;7.70;99.90;;;;;;5008111;28;20056;-87
2021/03/08 12:55:06;;;;;;;0.00;0.00;;;7.90;99.90;;;;;;5024447;28;20109;-87
2021/03/08 12:57:32;;;;;;;0.00;0.00;;;7.90;99.90;;;;;;5016640;28;20045;-87
2021/03/08 12:59:58;;;;;;;0.00;0.00;;;8.00;99.90;;;;;;5024333;28;20038;-87
2021/03/08 13:02:23;;;;;;;0.15;0.10;;;7.90;99.90;;;;;;5007355;28;20057;-87
2021/03/08 13:04:49;;;;;;;0.00;0.00;;;7.90;99.90;;;;;;5024578;28;20038;-88
2021/03/08 13:07:16;;;;;;;0.22;0.22;;;7.70;99.90;;;;;;5006013;28;20072;-87
2021/03/08 13:09:41;;;;;;;0.00;0.00;;;7.70;99.90;;;;;;5004620;28;20043;-87
2021/03/08 13:12:07;;;;;;;0.00;0.00;;;7.70;99.90;;;;;;5024278;28;20068;-87
2021/03/08 13:14:33;;;;;;;0.28;0.28;;;7.70;99.90;;;;;;5023965;28;20058;-87
2021/03/08 13:17:00;;;;;;;0.00;0.00;;;7.80;99.90;;;;;;5020641;28;20489;-87
2021/03/08 13:19:25;;;;;;;0.00;0.00;;;7.80;99.90;;;;;;5023951;28;20117;-87